sensor_id;sensor_type;location;lat;lon;timestamp;pressure;altitude;pressure_sealevel;temperature;humidity
7333;BME280;3707;43.618;25.342;2023-01-24T00:00:03;101730.72;;;2.77;100.00
7333;BME280;3707;43.618;25.342;2023-01-24T00:02:31;101724.38;;;2.72;100.00
7333;BME280;3707;43.618;25.342;2023-01-24T00:04:58;101701.56;;;2.52;100.00
7333;BME280;3707;43.618;25.342;2023-01-24T00:07:25;101728.84;;;2.63;100.00
7333;BME280;3707;43.618;25.342;2023-01-24T00:09:52;101730.84;;;2.67;100.00
7333;BME280;3707;43.618;25.342;2023-01-24T00:12:18;101727.59;;;2.58;100.00
7333;BME280;3707;43.618;25.342;2023-01-24T00:14:45;101733.06;;;2.50;100.00
7333;BME280;3707;43.618;25.342;2023-01-24T00:17:12;101729.94;;;2.43;100.00
7333;BME280;3707;43.618;25.342;2023-01-24T00:19:40;101731.41;;;2.51;100.00
7333;BME280;3707;43.618;25.342;2023-01-24T00:22:07;101741.28;;;2.46;100.00
7333;BME280;3707;43.618;25.342;2023-01-24T00:24:34;101738.72;;;2.46;100.00
7333;BME280;3707;43.618;25.342;2023-01-24T00:27:01;101742.84;;;2.44;100.00
7333;BME280;3707;43.618;25.342;2023-01-24T00:29:27;101744.19;;;2.51;100.00
7333;BME280;3707;43.618;25.342;2023-01-24T00:31:54;101744.53;;;2.56;100.00
7333;BME280;3707;43.618;25.342;2023-01-24T00:34:21;101745.53;;;2.58;100.00
7333;BME280;3707;43.618;25.342;2023-01-24T00:36:49;101740.63;;;2.61;100.00
7333;BME280;3707;43.618;25.342;2023-01-24T00:39:16;101737.63;;;2.66;100.00
7333;BME280;3707;43.618;25.342;2023-01-24T00:41:43;101735.94;;;2.43;100.00
7333;BME280;3707;43.618;25.342;2023-01-24T00:44:10;101703.56;;;2.21;100.00
7333;BME280;3707;43.618;25.342;2023-01-24T00:46:36;101732.41;;;2.41;100.00
7333;BME280;3707;43.618;25.342;2023-01-24T00:49:03;101718.84;;;2.42;100.00
7333;BME280;3707;43.618;25.342;2023-01-24T00:51:30;101739.97;;;2.52;100.00
7333;BME280;3707;43.618;25.342;2023-01-24T00:53:58;101737.09;;;2.59;100.00
7333;BME280;3707;43.618;25.342;2023-01-24T00:56:25;101726.06;;;2.48;100.00
7333;BME280;3707;43.618;25.342;2023-01-24T00:58:52;101752.78;;;2.52;100.00
7333;BME280;3707;43.618;25.342;2023-01-24T01:01:19;101745.31;;;2.55;100.00
7333;BME280;3707;43.618;25.342;2023-01-24T01:03:46;101756.66;;;2.58;100.00
7333;BME280;3707;43.618;25.342;2023-01-24T01:06:15;101755.91;;;2.59;100.00
7333;BME280;3707;43.618;25.342;2023-01-24T01:08:42;101764.00;;;2.54;100.00
7333;BME280;3707;43.618;25.342;2023-01-24T01:11:10;101762.22;;;2.41;100.00
7333;BME280;3707;43.618;25.342;2023-01-24T01:13:37;101769.44;;;2.46;100.00
7333;BME280;3707;43.618;25.342;2023-01-24T01:16:05;101777.13;;;2.35;100.00
7333;BME280;3707;43.618;25.342;2023-01-24T01:18:34;101777.34;;;2.38;100.00
7333;BME280;3707;43.618;25.342;2023-01-24T01:21:01;101769.78;;;2.39;100.00
7333;BME280;3707;43.618;25.342;2023-01-24T01:23:27;101764.56;;;2.38;100.00
7333;BME280;3707;43.618;25.342;2023-01-24T01:25:58;101774.03;;;2.50;100.00
7333;BME280;3707;43.618;25.342;2023-01-24T01:28:27;101772.09;;;2.36;100.00
7333;BME280;3707;43.618;25.342;2023-01-24T01:30:54;101778.88;;;2.36;100.00
7333;BME280;3707;43.618;25.342;2023-01-24T01:33:22;101784.69;;;2.33;100.00
7333;BME280;3707;43.618;25.342;2023-01-24T01:35:49;101769.63;;;2.26;100.00
7333;BME280;3707;43.618;25.342;2023-01-24T01:38:16;101771.91;;;2.45;100.00
7333;BME280;3707;43.618;25.342;2023-01-24T01:40:44;101747.50;;;2.27;100.00
7333;BME280;3707;43.618;25.342;2023-01-24T01:43:13;101748.63;;;2.30;100.00
7333;BME280;3707;43.618;25.342;2023-01-24T01:45:43;101774.91;;;2.51;100.00
7333;BME280;3707;43.618;25.342;2023-01-24T01:48:19;101763.44;;;2.34;100.00
7333;BME280;3707;43.618;25.342;2023-01-24T01:50:52;101759.31;;;2.36;100.00
7333;BME280;3707;43.618;25.342;2023-01-24T01:53:22;101759.13;;;2.45;100.00
7333;BME280;3707;43.618;25.342;2023-01-24T01:55:54;101769.78;;;2.51;100.00
7333;BME280;3707;43.618;25.342;2023-01-24T01:58:23;101765.75;;;2.43;100.00
7333;BME280;3707;43.618;25.342;2023-01-24T02:00:52;101766.34;;;2.50;100.00
7333;BME280;3707;43.618;25.342;2023-01-24T02:03:22;101769.47;;;2.58;100.00
7333;BME280;3707;43.618;25.342;2023-01-24T02:06:05;101774.25;;;2.54;100.00
7333;BME280;3707;43.618;25.342;2023-01-24T02:08:34;101769.59;;;2.60;100.00
7333;BME280;3707;43.618;25.342;2023-01-24T02:11:01;101766.69;;;2.55;100.00
7333;BME280;3707;43.618;25.342;2023-01-24T02:13:45;101768.03;;;2.62;100.00
7333;BME280;3707;43.618;25.342;2023-01-24T02:16:16;101782.84;;;2.66;100.00
7333;BME280;3707;43.618;25.342;2023-01-24T02:18:42;101765.91;;;2.44;100.00
7333;BME280;3707;43.618;25.342;2023-01-24T02:21:12;101783.72;;;2.66;100.00
7333;BME280;3707;43.618;25.342;2023-01-24T02:23:46;101784.97;;;2.60;100.00
7333;BME280;3707;43.618;25.342;2023-01-24T02:26:17;101783.63;;;2.53;100.00
7333;BME280;3707;43.618;25.342;2023-01-24T02:28:50;101781.41;;;2.69;100.00
7333;BME280;3707;43.618;25.342;2023-01-24T02:31:18;101780.25;;;2.54;100.00
7333;BME280;3707;43.618;25.342;2023-01-24T02:33:45;101780.03;;;2.51;100.00
7333;BME280;3707;43.618;25.342;2023-01-24T02:36:19;101770.47;;;2.72;100.00
7333;BME280;3707;43.618;25.342;2023-01-24T02:38:50;101737.88;;;2.46;100.00
7333;BME280;3707;43.618;25.342;2023-01-24T02:41:23;101776.94;;;2.78;100.00
7333;BME280;3707;43.618;25.342;2023-01-24T02:43:52;101775.16;;;2.66;100.00
7333;BME280;3707;43.618;25.342;2023-01-24T02:46:21;101767.13;;;2.49;100.00
7333;BME280;3707;43.618;25.342;2023-01-24T02:48:50;101777.69;;;2.54;100.00
7333;BME280;3707;43.618;25.342;2023-01-24T02:51:17;101772.69;;;2.56;100.00
7333;BME280;3707;43.618;25.342;2023-01-24T02:54:01;101750.00;;;2.48;100.00
7333;BME280;3707;43.618;25.342;2023-01-24T02:56:29;101753.41;;;2.37;100.00
7333;BME280;3707;43.618;25.342;2023-01-24T02:59:13;101747.72;;;2.30;100.00
7333;BME280;3707;43.618;25.342;2023-01-24T03:01:40;101737.75;;;2.44;100.00
7333;BME280;3707;43.618;25.342;2023-01-24T03:04:07;101771.13;;;2.58;100.00
7333;BME280;3707;43.618;25.342;2023-01-24T03:06:36;101769.13;;;2.54;100.00
7333;BME280;3707;43.618;25.342;2023-01-24T03:09:03;101766.88;;;2.46;100.00
7333;BME280;3707;43.618;25.342;2023-01-24T03:11:45;101772.25;;;2.49;100.00
7333;BME280;3707;43.618;25.342;2023-01-24T03:14:12;101771.13;;;2.34;100.00
7333;BME280;3707;43.618;25.342;2023-01-24T03:16:56;101776.69;;;2.40;100.00
7333;BME280;3707;43.618;25.342;2023-01-24T03:19:40;101774.78;;;2.38;100.00
7333;BME280;3707;43.618;25.342;2023-01-24T03:22:24;101779.16;;;2.39;100.00
7333;BME280;3707;43.618;25.342;2023-01-24T03:25:08;101750.63;;;2.34;100.00
7333;BME280;3707;43.618;25.342;2023-01-24T03:27:53;101775.16;;;2.42;100.00
7333;BME280;3707;43.618;25.342;2023-01-24T03:30:38;101771.25;;;2.47;100.00
7333;BME280;3707;43.618;25.342;2023-01-24T03:33:22;101776.03;;;2.55;100.00
7333;BME280;3707;43.618;25.342;2023-01-24T03:36:06;101768.47;;;2.44;100.00
7333;BME280;3707;43.618;25.342;2023-01-24T03:38:33;101771.13;;;2.34;100.00
7333;BME280;3707;43.618;25.342;2023-01-24T03:41:18;101748.94;;;2.23;100.00
7333;BME280;3707;43.618;25.342;2023-01-24T03:43:46;101767.00;;;2.36;100.00
7333;BME280;3707;43.618;25.342;2023-01-24T03:46:12;101774.56;;;2.35;100.00
7333;BME280;3707;43.618;25.342;2023-01-24T03:48:39;101741.56;;;3.69;100.00
7333;BME280;3707;43.618;25.342;2023-01-24T03:51:07;101771.59;;;3.10;100.00
7333;BME280;3707;43.618;25.342;2023-01-24T03:53:52;101755.09;;;2.72;100.00
7333;BME280;3707;43.618;25.342;2023-01-24T03:56:19;101771.34;;;2.61;100.00
7333;BME280;3707;43.618;25.342;2023-01-24T03:58:47;101769.78;;;2.51;100.00
7333;BME280;3707;43.618;25.342;2023-01-24T04:01:14;101742.38;;;2.27;100.00
7333;BME280;3707;43.618;25.342;2023-01-24T04:03:40;101773.94;;;2.49;100.00
7333;BME280;3707;43.618;25.342;2023-01-24T04:06:07;101780.16;;;2.64;100.00
7333;BME280;3707;43.618;25.342;2023-01-24T04:08:34;101775.41;;;2.92;100.00
7333;BME280;3707;43.618;25.342;2023-01-24T04:11:01;101779.94;;;2.73;100.00
7333;BME280;3707;43.618;25.342;2023-01-24T04:13:27;101773.25;;;2.86;100.00
7333;BME280;3707;43.618;25.342;2023-01-24T04:15:55;101771.13;;;2.58;100.00
7333;BME280;3707;43.618;25.342;2023-01-24T04:18:22;101787.50;;;2.60;100.00
7333;BME280;3707;43.618;25.342;2023-01-24T04:20:49;101749.75;;;2.34;100.00
7333;BME280;3707;43.618;25.342;2023-01-24T04:23:16;101755.16;;;2.15;100.00
7333;BME280;3707;43.618;25.342;2023-01-24T04:25:48;101786.38;;;2.44;100.00
7333;BME280;3707;43.618;25.342;2023-01-24T04:28:19;101782.22;;;2.23;100.00
7333;BME280;3707;43.618;25.342;2023-01-24T04:30:46;101782.03;;;2.32;100.00
7333;BME280;3707;43.618;25.342;2023-01-24T04:33:14;101791.63;;;2.46;100.00
7333;BME280;3707;43.618;25.342;2023-01-24T04:35:41;101790.34;;;2.29;100.00
7333;BME280;3707;43.618;25.342;2023-01-24T04:38:08;101761.84;;;2.13;100.00
7333;BME280;3707;43.618;25.342;2023-01-24T04:40:35;101793.97;;;2.21;100.00
7333;BME280;3707;43.618;25.342;2023-01-24T04:43:02;101795.78;;;2.22;100.00
7333;BME280;3707;43.618;25.342;2023-01-24T04:45:28;101797.66;;;2.13;100.00
7333;BME280;3707;43.618;25.342;2023-01-24T04:47:55;101805.91;;;2.21;100.00
7333;BME280;3707;43.618;25.342;2023-01-24T04:50:23;101805.78;;;2.19;100.00
7333;BME280;3707;43.618;25.342;2023-01-24T04:52:50;101787.00;;;1.97;100.00
7333;BME280;3707;43.618;25.342;2023-01-24T04:55:17;101807.53;;;2.09;100.00
7333;BME280;3707;43.618;25.342;2023-01-24T04:57:44;101810.34;;;1.90;100.00
7333;BME280;3707;43.618;25.342;2023-01-24T05:00:15;101807.41;;;2.07;100.00
7333;BME280;3707;43.618;25.342;2023-01-24T05:02:41;101796.25;;;1.95;100.00
7333;BME280;3707;43.618;25.342;2023-01-24T05:05:08;101817.06;;;1.99;100.00
7333;BME280;3707;43.618;25.342;2023-01-24T05:07:36;101817.91;;;2.10;100.00
7333;BME280;3707;43.618;25.342;2023-01-24T05:10:04;101817.94;;;2.00;100.00
7333;BME280;3707;43.618;25.342;2023-01-24T05:12:31;101825.38;;;1.97;100.00
7333;BME280;3707;43.618;25.342;2023-01-24T05:14:58;101821.09;;;1.86;100.00
7333;BME280;3707;43.618;25.342;2023-01-24T05:17:24;101828.31;;;1.80;100.00
7333;BME280;3707;43.618;25.342;2023-01-24T05:19:51;101832.94;;;1.74;100.00
7333;BME280;3707;43.618;25.342;2023-01-24T05:22:18;101816.88;;;1.65;100.00
7333;BME280;3707;43.618;25.342;2023-01-24T05:24:46;101832.34;;;1.88;100.00
7333;BME280;3707;43.618;25.342;2023-01-24T05:27:13;101838.25;;;1.87;100.00
7333;BME280;3707;43.618;25.342;2023-01-24T05:29:40;101840.78;;;1.87;100.00
7333;BME280;3707;43.618;25.342;2023-01-24T05:32:06;101841.03;;;1.90;100.00
7333;BME280;3707;43.618;25.342;2023-01-24T05:34:33;101846.22;;;2.02;100.00
7333;BME280;3707;43.618;25.342;2023-01-24T05:37:00;101851.63;;;1.94;100.00
7333;BME280;3707;43.618;25.342;2023-01-24T05:39:26;101848.06;;;1.92;100.00
7333;BME280;3707;43.618;25.342;2023-01-24T05:41:55;101846.88;;;1.99;100.00
7333;BME280;3707;43.618;25.342;2023-01-24T05:44:21;101851.09;;;1.98;100.00
7333;BME280;3707;43.618;25.342;2023-01-24T05:46:48;101865.84;;;1.91;100.00
7333;BME280;3707;43.618;25.342;2023-01-24T05:49:15;101848.47;;;1.87;100.00
7333;BME280;3707;43.618;25.342;2023-01-24T05:51:42;101861.09;;;1.74;100.00
7333;BME280;3707;43.618;25.342;2023-01-24T05:54:08;101872.53;;;1.79;100.00
7333;BME280;3707;43.618;25.342;2023-01-24T05:56:35;101860.78;;;1.81;100.00
7333;BME280;3707;43.618;25.342;2023-01-24T05:59:03;101863.75;;;1.97;100.00
7333;BME280;3707;43.618;25.342;2023-01-24T06:01:30;101763.97;;;1.20;100.00
7333;BME280;3707;43.618;25.342;2023-01-24T06:03:57;101850.41;;;1.58;100.00
7333;BME280;3707;43.618;25.342;2023-01-24T06:06:24;101868.69;;;1.84;100.00
7333;BME280;3707;43.618;25.342;2023-01-24T06:08:51;101884.09;;;1.74;100.00
7333;BME280;3707;43.618;25.342;2023-01-24T06:11:19;101879.59;;;1.81;100.00
7333;BME280;3707;43.618;25.342;2023-01-24T06:13:47;101891.88;;;1.75;100.00
7333;BME280;3707;43.618;25.342;2023-01-24T06:16:18;101879.22;;;1.77;100.00
7333;BME280;3707;43.618;25.342;2023-01-24T06:18:46;101893.44;;;1.95;100.00
7333;BME280;3707;43.618;25.342;2023-01-24T06:21:22;101857.69;;;1.85;100.00
7333;BME280;3707;43.618;25.342;2023-01-24T06:23:53;101872.38;;;1.87;100.00
7333;BME280;3707;43.618;25.342;2023-01-24T06:26:20;101894.22;;;1.94;100.00
7333;BME280;3707;43.618;25.342;2023-01-24T06:28:47;101767.94;;;1.17;100.00
7333;BME280;3707;43.618;25.342;2023-01-24T06:31:27;101891.56;;;1.92;100.00
7333;BME280;3707;43.618;25.342;2023-01-24T06:34:15;101878.16;;;1.85;100.00
7333;BME280;3707;43.618;25.342;2023-01-24T06:36:53;101904.91;;;2.00;100.00
7333;BME280;3707;43.618;25.342;2023-01-24T06:39:26;101875.91;;;1.78;100.00
7333;BME280;3707;43.618;25.342;2023-01-24T06:41:53;101900.66;;;1.89;100.00
7333;BME280;3707;43.618;25.342;2023-01-24T06:44:20;101875.06;;;1.89;100.00
7333;BME280;3707;43.618;25.342;2023-01-24T06:46:48;101863.34;;;1.81;100.00
7333;BME280;3707;43.618;25.342;2023-01-24T06:49:15;101886.91;;;1.98;100.00
7333;BME280;3707;43.618;25.342;2023-01-24T06:51:42;101897.97;;;1.87;100.00
7333;BME280;3707;43.618;25.342;2023-01-24T06:54:09;101909.03;;;1.98;100.00
7333;BME280;3707;43.618;25.342;2023-01-24T06:56:35;101874.56;;;1.83;100.00
7333;BME280;3707;43.618;25.342;2023-01-24T06:59:02;101920.75;;;2.06;100.00
7333;BME280;3707;43.618;25.342;2023-01-24T07:01:29;101867.69;;;1.82;100.00
7333;BME280;3707;43.618;25.342;2023-01-24T07:03:57;101923.94;;;2.25;100.00
7333;BME280;3707;43.618;25.342;2023-01-24T07:06:24;101903.25;;;2.22;100.00
7333;BME280;3707;43.618;25.342;2023-01-24T07:08:52;101917.78;;;2.12;100.00
7333;BME280;3707;43.618;25.342;2023-01-24T07:11:19;101924.69;;;2.13;100.00
7333;BME280;3707;43.618;25.342;2023-01-24T07:13:48;101928.38;;;2.16;100.00
7333;BME280;3707;43.618;25.342;2023-01-24T07:16:15;101919.44;;;2.11;100.00
7333;BME280;3707;43.618;25.342;2023-01-24T07:18:42;101926.03;;;2.19;100.00
7333;BME280;3707;43.618;25.342;2023-01-24T07:21:11;101931.09;;;2.29;100.00
7333;BME280;3707;43.618;25.342;2023-01-24T07:23:43;101923.84;;;2.24;100.00
7333;BME280;3707;43.618;25.342;2023-01-24T07:26:11;101859.00;;;1.80;100.00
7333;BME280;3707;43.618;25.342;2023-01-24T07:28:38;101932.72;;;2.17;100.00
7333;BME280;3707;43.618;25.342;2023-01-24T07:31:06;101824.59;;;1.55;100.00
7333;BME280;3707;43.618;25.342;2023-01-24T07:33:33;101909.19;;;2.11;100.00
7333;BME280;3707;43.618;25.342;2023-01-24T07:36:00;101931.53;;;2.24;100.00
7333;BME280;3707;43.618;25.342;2023-01-24T07:38:28;101934.69;;;2.31;100.00
7333;BME280;3707;43.618;25.342;2023-01-24T07:40:55;101927.84;;;2.54;100.00
7333;BME280;3707;43.618;25.342;2023-01-24T07:43:21;101943.88;;;2.29;100.00
7333;BME280;3707;43.618;25.342;2023-01-24T07:45:48;101934.78;;;2.33;100.00
7333;BME280;3707;43.618;25.342;2023-01-24T07:48:15;101947.81;;;2.14;100.00
7333;BME280;3707;43.618;25.342;2023-01-24T07:50:42;101920.31;;;2.12;100.00
7333;BME280;3707;43.618;25.342;2023-01-24T07:53:08;101932.44;;;2.24;100.00
7333;BME280;3707;43.618;25.342;2023-01-24T07:55:36;101942.22;;;2.30;100.00
7333;BME280;3707;43.618;25.342;2023-01-24T07:58:03;101943.94;;;2.19;100.00
7333;BME280;3707;43.618;25.342;2023-01-24T08:00:30;101944.19;;;2.22;100.00
7333;BME280;3707;43.618;25.342;2023-01-24T08:02:57;101936.16;;;2.18;100.00
7333;BME280;3707;43.618;25.342;2023-01-24T08:05:24;101945.84;;;2.43;100.00
7333;BME280;3707;43.618;25.342;2023-01-24T08:07:53;101944.31;;;2.45;100.00
7333;BME280;3707;43.618;25.342;2023-01-24T08:10:20;101915.28;;;2.23;100.00
7333;BME280;3707;43.618;25.342;2023-01-24T08:12:49;101950.28;;;2.68;100.00
7333;BME280;3707;43.618;25.342;2023-01-24T08:15:16;101947.19;;;2.72;100.00
7333;BME280;3707;43.618;25.342;2023-01-24T08:17:43;101909.31;;;2.34;100.00
7333;BME280;3707;43.618;25.342;2023-01-24T08:20:11;101870.16;;;2.35;100.00
7333;BME280;3707;43.618;25.342;2023-01-24T08:22:38;101945.47;;;2.61;100.00
7333;BME280;3707;43.618;25.342;2023-01-24T08:25:05;101947.25;;;2.62;100.00
7333;BME280;3707;43.618;25.342;2023-01-24T08:27:32;101952.84;;;2.68;100.00
7333;BME280;3707;43.618;25.342;2023-01-24T08:30:00;101958.22;;;2.82;100.00
7333;BME280;3707;43.618;25.342;2023-01-24T08:32:28;101965.50;;;2.88;100.00
7333;BME280;3707;43.618;25.342;2023-01-24T08:34:54;101959.00;;;2.70;100.00
7333;BME280;3707;43.618;25.342;2023-01-24T08:37:22;101972.16;;;2.86;100.00
7333;BME280;3707;43.618;25.342;2023-01-24T08:39:49;101969.47;;;2.73;100.00
7333;BME280;3707;43.618;25.342;2023-01-24T08:42:15;101959.34;;;2.74;100.00
7333;BME280;3707;43.618;25.342;2023-01-24T08:44:42;101964.88;;;2.69;100.00
7333;BME280;3707;43.618;25.342;2023-01-24T08:47:10;101969.47;;;2.73;100.00
7333;BME280;3707;43.618;25.342;2023-01-24T08:49:37;101972.47;;;2.79;100.00
7333;BME280;3707;43.618;25.342;2023-01-24T08:52:04;101974.44;;;2.71;100.00
7333;BME280;3707;43.618;25.342;2023-01-24T08:54:31;101977.28;;;2.53;100.00
7333;BME280;3707;43.618;25.342;2023-01-24T08:57:00;101978.81;;;2.72;100.00
7333;BME280;3707;43.618;25.342;2023-01-24T08:59:27;101991.88;;;2.87;100.00
7333;BME280;3707;43.618;25.342;2023-01-24T09:01:54;101978.72;;;2.71;100.00
7333;BME280;3707;43.618;25.342;2023-01-24T09:04:22;101984.69;;;2.71;100.00
7333;BME280;3707;43.618;25.342;2023-01-24T09:06:51;101956.88;;;2.42;100.00
7333;BME280;3707;43.618;25.342;2023-01-24T09:09:19;101946.94;;;2.69;100.00
7333;BME280;3707;43.618;25.342;2023-01-24T09:11:45;101981.56;;;2.64;100.00
7333;BME280;3707;43.618;25.342;2023-01-24T09:14:12;101981.56;;;2.64;100.00
7333;BME280;3707;43.618;25.342;2023-01-24T09:16:39;101980.28;;;2.80;100.00
7333;BME280;3707;43.618;25.342;2023-01-24T09:19:06;101964.47;;;2.74;100.00
7333;BME280;3707;43.618;25.342;2023-01-24T09:21:34;101973.88;;;2.97;100.00
7333;BME280;3707;43.618;25.342;2023-01-24T09:24:01;101972.56;;;3.02;100.00
7333;BME280;3707;43.618;25.342;2023-01-24T09:26:28;101972.06;;;2.84;100.00
7333;BME280;3707;43.618;25.342;2023-01-24T09:28:55;101972.06;;;2.84;100.00
7333;BME280;3707;43.618;25.342;2023-01-24T09:31:22;101977.47;;;2.99;100.00
7333;BME280;3707;43.618;25.342;2023-01-24T09:33:48;101877.22;;;2.49;100.00
7333;BME280;3707;43.618;25.342;2023-01-24T09:36:15;101961.88;;;3.08;100.00
7333;BME280;3707;43.618;25.342;2023-01-24T09:38:43;101980.13;;;3.00;100.00
7333;BME280;3707;43.618;25.342;2023-01-24T09:41:17;101970.56;;;3.10;100.00
7333;BME280;3707;43.618;25.342;2023-01-24T09:43:51;101975.63;;;2.86;100.00
7333;BME280;3707;43.618;25.342;2023-01-24T09:46:28;101963.63;;;2.97;100.00
7333;BME280;3707;43.618;25.342;2023-01-24T09:49:12;101968.44;;;3.04;100.00
7333;BME280;3707;43.618;25.342;2023-01-24T09:51:43;101972.72;;;2.82;100.00
7333;BME280;3707;43.618;25.342;2023-01-24T09:54:23;101962.09;;;2.99;100.00
7333;BME280;3707;43.618;25.342;2023-01-24T09:56:54;101963.63;;;2.97;100.00
7333;BME280;3707;43.618;25.342;2023-01-24T09:59:24;101967.66;;;3.05;100.00
7333;BME280;3707;43.618;25.342;2023-01-24T10:01:54;101962.34;;;3.25;100.00
7333;BME280;3707;43.618;25.342;2023-01-24T10:04:25;101972.91;;;3.18;100.00
7333;BME280;3707;43.618;25.342;2023-01-24T10:10:25;101967.41;;;2.90;100.00
7333;BME280;3707;43.618;25.342;2023-01-24T10:13:01;101964.81;;;3.24;100.00
7333;BME280;3707;43.618;25.342;2023-01-24T10:15:38;101971.94;;;3.39;100.00
7333;BME280;3707;43.618;25.342;2023-01-24T10:18:26;101969.16;;;3.36;100.00
7333;BME280;3707;43.618;25.342;2023-01-24T10:21:15;101974.28;;;3.36;100.00
7333;BME280;3707;43.618;25.342;2023-01-24T10:23:47;101953.75;;;3.13;100.00
7333;BME280;3707;43.618;25.342;2023-01-24T10:26:20;101941.19;;;3.28;100.00
7333;BME280;3707;43.618;25.342;2023-01-24T10:28:49;101950.78;;;3.30;100.00
7333;BME280;3707;43.618;25.342;2023-01-24T10:31:20;101943.16;;;3.32;100.00
7333;BME280;3707;43.618;25.342;2023-01-24T10:33:50;101928.69;;;3.32;100.00
7333;BME280;3707;43.618;25.342;2023-01-24T10:36:26;101933.63;;;3.53;100.00
7333;BME280;3707;43.618;25.342;2023-01-24T10:38:56;101936.25;;;3.19;100.00
7333;BME280;3707;43.618;25.342;2023-01-24T10:41:26;101906.41;;;3.20;100.00
7333;BME280;3707;43.618;25.342;2023-01-24T10:44:00;101911.75;;;3.23;100.00
7333;BME280;3707;43.618;25.342;2023-01-24T10:46:49;101933.59;;;3.41;100.00
7333;BME280;3707;43.618;25.342;2023-01-24T10:49:23;101932.50;;;3.49;100.00
7333;BME280;3707;43.618;25.342;2023-01-24T10:52:12;101930.03;;;3.27;100.00
7333;BME280;3707;43.618;25.342;2023-01-24T10:54:44;101905.31;;;3.28;100.00
7333;BME280;3707;43.618;25.342;2023-01-24T10:57:29;101929.16;;;3.38;100.00
7333;BME280;3707;43.618;25.342;2023-01-24T11:00:01;101926.00;;;3.19;100.00
7333;BME280;3707;43.618;25.342;2023-01-24T11:02:30;101898.16;;;3.12;100.00
7333;BME280;3707;43.618;25.342;2023-01-24T11:05:00;101919.41;;;3.11;100.00
7333;BME280;3707;43.618;25.342;2023-01-24T11:07:30;101924.22;;;3.18;100.00
7333;BME280;3707;43.618;25.342;2023-01-24T11:10:01;101901.59;;;3.13;100.00
7333;BME280;3707;43.618;25.342;2023-01-24T11:12:34;101899.06;;;3.24;100.00
7333;BME280;3707;43.618;25.342;2023-01-24T11:15:01;101910.19;;;3.36;100.00
7333;BME280;3707;43.618;25.342;2023-01-24T11:17:31;101891.69;;;3.17;100.00
7333;BME280;3707;43.618;25.342;2023-01-24T11:20:01;101900.59;;;3.22;100.00
7333;BME280;3707;43.618;25.342;2023-01-24T11:22:29;101902.19;;;3.20;100.00
7333;BME280;3707;43.618;25.342;2023-01-24T11:25:02;101864.03;;;2.90;100.00
7333;BME280;3707;43.618;25.342;2023-01-24T11:27:31;101884.56;;;3.36;100.00
7333;BME280;3707;43.618;25.342;2023-01-24T11:30:13;101890.56;;;3.25;100.00
7333;BME280;3707;43.618;25.342;2023-01-24T11:32:50;101882.31;;;3.29;100.00
7333;BME280;3707;43.618;25.342;2023-01-24T11:35:22;101874.09;;;3.45;100.00
7333;BME280;3707;43.618;25.342;2023-01-24T11:41:02;101879.31;;;3.23;100.00
7333;BME280;3707;43.618;25.342;2023-01-24T11:44:00;101874.09;;;3.33;100.00
7333;BME280;3707;43.618;25.342;2023-01-24T11:46:47;101871.53;;;3.33;100.00
7333;BME280;3707;43.618;25.342;2023-01-24T11:49:29;101874.84;;;3.32;100.00
7333;BME280;3707;43.618;25.342;2023-01-24T11:52:13;101875.53;;;3.41;100.00
7333;BME280;3707;43.618;25.342;2023-01-24T11:54:54;101860.69;;;3.14;100.00
7333;BME280;3707;43.618;25.342;2023-01-24T11:57:31;101874.50;;;3.39;100.00
7333;BME280;3707;43.618;25.342;2023-01-24T12:00:24;101884.97;;;3.42;100.00
7333;BME280;3707;43.618;25.342;2023-01-24T12:03:14;101853.78;;;3.36;100.00
7333;BME280;3707;43.618;25.342;2023-01-24T12:05:59;101869.38;;;3.63;100.00
7333;BME280;3707;43.618;25.342;2023-01-24T12:08:40;101866.88;;;3.76;100.00
7333;BME280;3707;43.618;25.342;2023-01-24T12:11:15;101874.22;;;3.83;100.00
7333;BME280;3707;43.618;25.342;2023-01-24T12:13:48;101840.41;;;3.52;100.00
7333;BME280;3707;43.618;25.342;2023-01-24T12:16:31;101874.69;;;3.77;100.00
7333;BME280;3707;43.618;25.342;2023-01-24T12:19:25;101863.81;;;3.93;100.00
7333;BME280;3707;43.618;25.342;2023-01-24T12:21:57;101877.22;;;3.89;100.00
7333;BME280;3707;43.618;25.342;2023-01-24T12:24:26;101851.25;;;3.84;100.00
7333;BME280;3707;43.618;25.342;2023-01-24T12:26:58;101842.72;;;3.61;100.00
7333;BME280;3707;43.618;25.342;2023-01-24T12:29:28;101862.66;;;3.65;100.00
7333;BME280;3707;43.618;25.342;2023-01-24T12:32:01;101865.09;;;3.75;100.00
7333;BME280;3707;43.618;25.342;2023-01-24T12:34:40;101873.38;;;3.71;100.00
7333;BME280;3707;43.618;25.342;2023-01-24T12:37:13;101873.81;;;3.77;100.00
7333;BME280;3707;43.618;25.342;2023-01-24T12:39:50;101881.66;;;3.55;100.00
7333;BME280;3707;43.618;25.342;2023-01-24T12:42:25;101874.59;;;3.64;100.00
7333;BME280;3707;43.618;25.342;2023-01-24T12:45:02;101871.16;;;3.64;100.00
7333;BME280;3707;43.618;25.342;2023-01-24T12:47:34;101875.19;;;3.48;100.00
7333;BME280;3707;43.618;25.342;2023-01-24T12:50:14;101870.19;;;3.38;100.00
7333;BME280;3707;43.618;25.342;2023-01-24T12:52:46;101866.72;;;3.49;100.00
7333;BME280;3707;43.618;25.342;2023-01-24T12:55:23;101868.06;;;3.56;100.00
7333;BME280;3707;43.618;25.342;2023-01-24T12:57:56;101867.38;;;3.59;100.00
7333;BME280;3707;43.618;25.342;2023-01-24T13:00:31;101864.03;;;3.48;100.00
7333;BME280;3707;43.618;25.342;2023-01-24T13:03:42;101851.44;;;3.39;100.00
7333;BME280;3707;43.618;25.342;2023-01-24T13:06:19;101862.81;;;3.55;100.00
7333;BME280;3707;43.618;25.342;2023-01-24T13:08:58;101873.06;;;3.55;100.00
7333;BME280;3707;43.618;25.342;2023-01-24T13:11:28;101871.94;;;3.39;100.00
7333;BME280;3707;43.618;25.342;2023-01-24T13:14:06;101871.84;;;3.49;100.00
7333;BME280;3707;43.618;25.342;2023-01-24T13:17:01;101870.00;;;3.72;100.00
7333;BME280;3707;43.618;25.342;2023-01-24T13:19:43;101871.38;;;3.67;100.00
7333;BME280;3707;43.618;25.342;2023-01-24T13:22:31;101830.59;;;3.46;100.00
7333;BME280;3707;43.618;25.342;2023-01-24T13:25:10;101863.00;;;3.69;100.00